sensor_id;sensor_type;location;lat;lon;timestamp;P1;durP1;ratioP1;P2;durP2;ratioP2
22060;SDS011;11194;48.092;-1.382;2023-03-01T00:02:25;47.75;;;24.08;;
22060;SDS011;11194;48.092;-1.382;2023-03-01T00:04:51;47.65;;;23.85;;
22060;SDS011;11194;48.092;-1.382;2023-03-01T00:07:17;48.33;;;24.40;;
22060;SDS011;11194;48.092;-1.382;2023-03-01T00:09:43;56.22;;;26.17;;
22060;SDS011;11194;48.092;-1.382;2023-03-01T00:12:10;54.08;;;25.75;;
22060;SDS011;11194;48.092;-1.382;2023-03-01T00:14:36;47.33;;;24.65;;
22060;SDS011;11194;48.092;-1.382;2023-03-01T00:17:02;45.70;;;22.50;;
22060;SDS011;11194;48.092;-1.382;2023-03-01T00:19:28;53.08;;;24.92;;
22060;SDS011;11194;48.092;-1.382;2023-03-01T00:21:54;46.08;;;22.85;;
22060;SDS011;11194;48.092;-1.382;2023-03-01T00:24:20;45.55;;;24.58;;
22060;SDS011;11194;48.092;-1.382;2023-03-01T00:26:46;51.85;;;25.65;;
22060;SDS011;11194;48.092;-1.382;2023-03-01T00:29:13;46.20;;;22.10;;
22060;SDS011;11194;48.092;-1.382;2023-03-01T00:31:39;51.30;;;24.77;;
22060;SDS011;11194;48.092;-1.382;2023-03-01T00:34:05;47.47;;;25.92;;
22060;SDS011;11194;48.092;-1.382;2023-03-01T00:36:32;48.55;;;23.23;;
22060;SDS011;11194;48.092;-1.382;2023-03-01T00:38:59;50.33;;;23.58;;
22060;SDS011;11194;48.092;-1.382;2023-03-01T00:41:26;52.67;;;24.98;;
22060;SDS011;11194;48.092;-1.382;2023-03-01T00:43:52;54.50;;;27.20;;
22060;SDS011;11194;48.092;-1.382;2023-03-01T00:46:22;47.85;;;23.35;;
22060;SDS011;11194;48.092;-1.382;2023-03-01T00:48:48;46.67;;;21.17;;
22060;SDS011;11194;48.092;-1.382;2023-03-01T00:51:15;42.67;;;21.60;;
22060;SDS011;11194;48.092;-1.382;2023-03-01T00:53:42;49.38;;;24.50;;
22060;SDS011;11194;48.092;-1.382;2023-03-01T00:56:09;45.95;;;23.30;;
22060;SDS011;11194;48.092;-1.382;2023-03-01T00:58:35;44.70;;;22.60;;
22060;SDS011;11194;48.092;-1.382;2023-03-01T01:01:07;46.33;;;22.77;;
22060;SDS011;11194;48.092;-1.382;2023-03-01T01:03:41;46.13;;;22.15;;
22060;SDS011;11194;48.092;-1.382;2023-03-01T01:06:12;47.60;;;23.10;;
22060;SDS011;11194;48.092;-1.382;2023-03-01T01:08:38;43.72;;;22.10;;
22060;SDS011;11194;48.092;-1.382;2023-03-01T01:11:04;45.90;;;22.83;;
22060;SDS011;11194;48.092;-1.382;2023-03-01T01:13:30;48.75;;;24.85;;
22060;SDS011;11194;48.092;-1.382;2023-03-01T01:16:00;49.35;;;24.48;;
22060;SDS011;11194;48.092;-1.382;2023-03-01T01:18:26;49.28;;;22.92;;
22060;SDS011;11194;48.092;-1.382;2023-03-01T01:20:52;46.40;;;23.75;;
22060;SDS011;11194;48.092;-1.382;2023-03-01T01:23:18;41.75;;;21.40;;
22060;SDS011;11194;48.092;-1.382;2023-03-01T01:25:44;35.58;;;19.10;;
22060;SDS011;11194;48.092;-1.382;2023-03-01T01:28:10;42.53;;;20.30;;
22060;SDS011;11194;48.092;-1.382;2023-03-01T01:30:36;44.70;;;22.15;;
22060;SDS011;11194;48.092;-1.382;2023-03-01T01:33:02;37.72;;;19.75;;
22060;SDS011;11194;48.092;-1.382;2023-03-01T01:35:28;40.60;;;20.52;;
22060;SDS011;11194;48.092;-1.382;2023-03-01T01:37:54;33.38;;;17.90;;
22060;SDS011;11194;48.092;-1.382;2023-03-01T01:40:20;36.10;;;19.70;;
22060;SDS011;11194;48.092;-1.382;2023-03-01T01:42:46;36.58;;;19.13;;
22060;SDS011;11194;48.092;-1.382;2023-03-01T01:45:32;31.30;;;15.68;;
22060;SDS011;11194;48.092;-1.382;2023-03-01T01:48:03;29.98;;;17.38;;
22060;SDS011;11194;48.092;-1.382;2023-03-01T01:50:30;36.38;;;19.27;;
22060;SDS011;11194;48.092;-1.382;2023-03-01T01:53:03;31.05;;;16.50;;
22060;SDS011;11194;48.092;-1.382;2023-03-01T01:55:31;31.40;;;16.48;;
22060;SDS011;11194;48.092;-1.382;2023-03-01T01:57:58;31.05;;;16.70;;
22060;SDS011;11194;48.092;-1.382;2023-03-01T02:00:27;27.92;;;15.32;;
22060;SDS011;11194;48.092;-1.382;2023-03-01T02:02:57;29.85;;;17.00;;
22060;SDS011;11194;48.092;-1.382;2023-03-01T02:07:52;29.08;;;15.48;;
22060;SDS011;11194;48.092;-1.382;2023-03-01T02:10:19;26.80;;;14.80;;
22060;SDS011;11194;48.092;-1.382;2023-03-01T02:12:45;28.55;;;15.93;;
22060;SDS011;11194;48.092;-1.382;2023-03-01T02:15:12;26.48;;;14.45;;
22060;SDS011;11194;48.092;-1.382;2023-03-01T02:17:38;29.30;;;16.20;;
22060;SDS011;11194;48.092;-1.382;2023-03-01T02:20:16;28.48;;;15.70;;
22060;SDS011;11194;48.092;-1.382;2023-03-01T02:22:44;29.63;;;15.10;;
22060;SDS011;11194;48.092;-1.382;2023-03-01T02:28:05;30.70;;;17.35;;
22060;SDS011;11194;48.092;-1.382;2023-03-01T05:02:40;28.48;;;13.98;;
22060;SDS011;11194;48.092;-1.382;2023-03-01T05:05:08;27.20;;;15.23;;
22060;SDS011;11194;48.092;-1.382;2023-03-01T05:07:35;26.98;;;14.32;;
22060;SDS011;11194;48.092;-1.382;2023-03-01T05:10:01;28.30;;;15.05;;
22060;SDS011;11194;48.092;-1.382;2023-03-01T05:12:27;30.20;;;15.63;;
22060;SDS011;11194;48.092;-1.382;2023-03-01T05:14:54;28.90;;;14.75;;
22060;SDS011;11194;48.092;-1.382;2023-03-01T05:17:20;25.80;;;14.27;;
22060;SDS011;11194;48.092;-1.382;2023-03-01T05:19:46;27.50;;;15.27;;
22060;SDS011;11194;48.092;-1.382;2023-03-01T05:22:12;27.52;;;15.95;;
22060;SDS011;11194;48.092;-1.382;2023-03-01T05:24:38;30.27;;;15.43;;
22060;SDS011;11194;48.092;-1.382;2023-03-01T05:27:04;31.50;;;16.25;;
22060;SDS011;11194;48.092;-1.382;2023-03-01T05:29:31;27.55;;;15.25;;
22060;SDS011;11194;48.092;-1.382;2023-03-01T05:31:59;30.65;;;14.57;;
22060;SDS011;11194;48.092;-1.382;2023-03-01T05:34:33;26.13;;;14.93;;
22060;SDS011;11194;48.092;-1.382;2023-03-01T05:37:00;29.65;;;15.13;;
22060;SDS011;11194;48.092;-1.382;2023-03-01T05:39:27;27.25;;;14.70;;
22060;SDS011;11194;48.092;-1.382;2023-03-01T05:41:57;28.13;;;14.65;;
22060;SDS011;11194;48.092;-1.382;2023-03-01T05:44:23;25.20;;;14.52;;
22060;SDS011;11194;48.092;-1.382;2023-03-01T05:46:50;25.73;;;13.23;;
22060;SDS011;11194;48.092;-1.382;2023-03-01T05:49:16;28.38;;;14.93;;
22060;SDS011;11194;48.092;-1.382;2023-03-01T05:51:43;29.33;;;14.68;;
22060;SDS011;11194;48.092;-1.382;2023-03-01T05:54:09;26.42;;;14.55;;
22060;SDS011;11194;48.092;-1.382;2023-03-01T05:56:36;24.58;;;13.30;;
22060;SDS011;11194;48.092;-1.382;2023-03-01T05:59:02;26.55;;;13.45;;
22060;SDS011;11194;48.092;-1.382;2023-03-01T06:01:28;24.50;;;13.48;;
22060;SDS011;11194;48.092;-1.382;2023-03-01T06:03:55;23.25;;;13.57;;
22060;SDS011;11194;48.092;-1.382;2023-03-01T06:06:21;23.65;;;13.05;;
22060;SDS011;11194;48.092;-1.382;2023-03-01T06:08:47;23.02;;;13.27;;
22060;SDS011;11194;48.092;-1.382;2023-03-01T06:11:13;21.65;;;12.75;;
22060;SDS011;11194;48.092;-1.382;2023-03-01T06:13:41;25.27;;;13.05;;
22060;SDS011;11194;48.092;-1.382;2023-03-01T06:16:07;26.55;;;13.20;;
22060;SDS011;11194;48.092;-1.382;2023-03-01T06:18:33;26.50;;;13.70;;
22060;SDS011;11194;48.092;-1.382;2023-03-01T06:20:59;25.17;;;13.40;;
22060;SDS011;11194;48.092;-1.382;2023-03-01T06:23:25;26.02;;;13.38;;
22060;SDS011;11194;48.092;-1.382;2023-03-01T06:25:51;23.27;;;13.48;;
22060;SDS011;11194;48.092;-1.382;2023-03-01T06:28:18;26.27;;;13.18;;
22060;SDS011;11194;48.092;-1.382;2023-03-01T06:30:44;26.40;;;14.18;;
22060;SDS011;11194;48.092;-1.382;2023-03-01T06:33:10;27.95;;;14.73;;
22060;SDS011;11194;48.092;-1.382;2023-03-01T06:35:37;28.30;;;14.13;;
22060;SDS011;11194;48.092;-1.382;2023-03-01T06:38:03;24.98;;;13.43;;
22060;SDS011;11194;48.092;-1.382;2023-03-01T06:40:29;26.38;;;14.02;;
22060;SDS011;11194;48.092;-1.382;2023-03-01T06:42:56;29.00;;;14.60;;
22060;SDS011;11194;48.092;-1.382;2023-03-01T06:45:22;27.08;;;14.85;;
22060;SDS011;11194;48.092;-1.382;2023-03-01T06:47:49;27.40;;;12.95;;
22060;SDS011;11194;48.092;-1.382;2023-03-01T06:50:15;26.10;;;14.02;;
22060;SDS011;11194;48.092;-1.382;2023-03-01T06:52:41;26.42;;;13.45;;
22060;SDS011;11194;48.092;-1.382;2023-03-01T06:55:09;24.42;;;12.80;;
22060;SDS011;11194;48.092;-1.382;2023-03-01T06:57:36;25.05;;;13.85;;
22060;SDS011;11194;48.092;-1.382;2023-03-01T07:00:03;25.38;;;13.55;;
22060;SDS011;11194;48.092;-1.382;2023-03-01T07:02:29;26.98;;;13.57;;
22060;SDS011;11194;48.092;-1.382;2023-03-01T07:04:55;26.65;;;13.50;;
22060;SDS011;11194;48.092;-1.382;2023-03-01T07:07:22;26.65;;;14.13;;
22060;SDS011;11194;48.092;-1.382;2023-03-01T07:09:48;22.70;;;12.30;;
22060;SDS011;11194;48.092;-1.382;2023-03-01T07:12:14;24.80;;;13.02;;
22060;SDS011;11194;48.092;-1.382;2023-03-01T07:14:41;25.20;;;12.95;;
22060;SDS011;11194;48.092;-1.382;2023-03-01T07:17:07;26.65;;;14.40;;
22060;SDS011;11194;48.092;-1.382;2023-03-01T07:19:33;24.30;;;12.52;;
22060;SDS011;11194;48.092;-1.382;2023-03-01T07:21:59;23.88;;;12.77;;
22060;SDS011;11194;48.092;-1.382;2023-03-01T07:24:25;21.27;;;11.70;;
22060;SDS011;11194;48.092;-1.382;2023-03-01T07:26:51;22.42;;;11.57;;
22060;SDS011;11194;48.092;-1.382;2023-03-01T07:29:18;23.63;;;12.32;;
22060;SDS011;11194;48.092;-1.382;2023-03-01T07:31:44;21.38;;;13.30;;
22060;SDS011;11194;48.092;-1.382;2023-03-01T07:34:11;20.55;;;11.40;;
22060;SDS011;11194;48.092;-1.382;2023-03-01T07:36:37;21.70;;;11.77;;
22060;SDS011;11194;48.092;-1.382;2023-03-01T07:39:04;23.10;;;11.82;;
22060;SDS011;11194;48.092;-1.382;2023-03-01T07:41:30;17.75;;;11.60;;
22060;SDS011;11194;48.092;-1.382;2023-03-01T07:43:56;17.90;;;11.25;;
22060;SDS011;11194;48.092;-1.382;2023-03-01T07:46:23;19.33;;;12.02;;
22060;SDS011;11194;48.092;-1.382;2023-03-01T07:48:49;21.45;;;12.20;;
22060;SDS011;11194;48.092;-1.382;2023-03-01T07:51:15;18.90;;;10.77;;
22060;SDS011;11194;48.092;-1.382;2023-03-01T07:53:41;25.95;;;12.38;;
22060;SDS011;11194;48.092;-1.382;2023-03-01T07:56:08;19.58;;;12.13;;
22060;SDS011;11194;48.092;-1.382;2023-03-01T07:58:35;16.15;;;10.35;;
22060;SDS011;11194;48.092;-1.382;2023-03-01T08:01:05;19.52;;;11.48;;
22060;SDS011;11194;48.092;-1.382;2023-03-01T08:03:31;20.45;;;10.75;;
22060;SDS011;11194;48.092;-1.382;2023-03-01T08:06:01;19.05;;;11.68;;
22060;SDS011;11194;48.092;-1.382;2023-03-01T08:08:28;22.10;;;12.13;;
22060;SDS011;11194;48.092;-1.382;2023-03-01T08:10:58;17.95;;;11.30;;
22060;SDS011;11194;48.092;-1.382;2023-03-01T08:13:24;19.25;;;11.88;;
22060;SDS011;11194;48.092;-1.382;2023-03-01T08:15:50;16.00;;;10.98;;
22060;SDS011;11194;48.092;-1.382;2023-03-01T08:18:17;15.18;;;10.57;;
22060;SDS011;11194;48.092;-1.382;2023-03-01T08:20:43;16.75;;;10.65;;
22060;SDS011;11194;48.092;-1.382;2023-03-01T08:23:09;17.27;;;10.93;;
22060;SDS011;11194;48.092;-1.382;2023-03-01T08:25:36;18.58;;;11.70;;
22060;SDS011;11194;48.092;-1.382;2023-03-01T08:28:02;17.60;;;10.68;;
22060;SDS011;11194;48.092;-1.382;2023-03-01T08:30:28;22.02;;;12.18;;
22060;SDS011;11194;48.092;-1.382;2023-03-01T08:32:55;21.17;;;12.55;;
22060;SDS011;11194;48.092;-1.382;2023-03-01T08:35:21;21.63;;;12.02;;
22060;SDS011;11194;48.092;-1.382;2023-03-01T08:37:47;19.15;;;11.55;;
22060;SDS011;11194;48.092;-1.382;2023-03-01T08:40:13;19.90;;;11.57;;
22060;SDS011;11194;48.092;-1.382;2023-03-01T08:42:40;22.90;;;12.45;;
22060;SDS011;11194;48.092;-1.382;2023-03-01T08:45:08;20.17;;;10.05;;
22060;SDS011;11194;48.092;-1.382;2023-03-01T08:47:34;22.30;;;11.77;;
22060;SDS011;11194;48.092;-1.382;2023-03-01T08:50:00;19.27;;;11.13;;
22060;SDS011;11194;48.092;-1.382;2023-03-01T08:52:26;18.33;;;11.48;;
22060;SDS011;11194;48.092;-1.382;2023-03-01T08:54:52;18.80;;;11.60;;
22060;SDS011;11194;48.092;-1.382;2023-03-01T08:57:19;22.38;;;11.38;;
22060;SDS011;11194;48.092;-1.382;2023-03-01T08:59:45;20.95;;;12.23;;
22060;SDS011;11194;48.092;-1.382;2023-03-01T09:02:12;20.77;;;12.27;;
22060;SDS011;11194;48.092;-1.382;2023-03-01T09:04:39;19.65;;;11.40;;
22060;SDS011;11194;48.092;-1.382;2023-03-01T09:07:05;22.10;;;13.18;;
22060;SDS011;11194;48.092;-1.382;2023-03-01T09:09:31;22.02;;;12.85;;
22060;SDS011;11194;48.092;-1.382;2023-03-01T09:11:57;21.83;;;11.57;;
22060;SDS011;11194;48.092;-1.382;2023-03-01T09:14:23;22.17;;;12.48;;
22060;SDS011;11194;48.092;-1.382;2023-03-01T09:16:50;18.65;;;10.95;;
22060;SDS011;11194;48.092;-1.382;2023-03-01T09:19:16;19.25;;;10.90;;
22060;SDS011;11194;48.092;-1.382;2023-03-01T09:21:42;18.75;;;10.98;;
22060;SDS011;11194;48.092;-1.382;2023-03-01T09:24:17;22.17;;;11.85;;
22060;SDS011;11194;48.092;-1.382;2023-03-01T09:26:44;20.52;;;12.30;;
22060;SDS011;11194;48.092;-1.382;2023-03-01T09:29:13;22.10;;;11.90;;
22060;SDS011;11194;48.092;-1.382;2023-03-01T09:31:39;20.50;;;11.27;;
22060;SDS011;11194;48.092;-1.382;2023-03-01T09:34:06;21.35;;;13.23;;
22060;SDS011;11194;48.092;-1.382;2023-03-01T09:36:32;22.23;;;11.75;;
22060;SDS011;11194;48.092;-1.382;2023-03-01T09:38:59;23.85;;;12.95;;
22060;SDS011;11194;48.092;-1.382;2023-03-01T09:44:26;22.67;;;12.38;;
22060;SDS011;11194;48.092;-1.382;2023-03-01T09:46:53;23.40;;;12.43;;
22060;SDS011;11194;48.092;-1.382;2023-03-01T09:49:21;19.15;;;12.15;;
22060;SDS011;11194;48.092;-1.382;2023-03-01T09:54:23;23.13;;;12.00;;
22060;SDS011;11194;48.092;-1.382;2023-03-01T09:56:59;20.75;;;12.98;;
22060;SDS011;11194;48.092;-1.382;2023-03-01T10:00:03;18.45;;;9.80;;
22060;SDS011;11194;48.092;-1.382;2023-03-01T10:02:39;22.25;;;12.60;;
22060;SDS011;11194;48.092;-1.382;2023-03-01T10:08:02;23.75;;;13.25;;
22060;SDS011;11194;48.092;-1.382;2023-03-01T10:10:33;25.92;;;13.63;;
22060;SDS011;11194;48.092;-1.382;2023-03-01T10:13:09;20.58;;;12.88;;
22060;SDS011;11194;48.092;-1.382;2023-03-01T10:15:39;24.17;;;14.20;;
22060;SDS011;11194;48.092;-1.382;2023-03-01T10:18:10;26.42;;;15.43;;
22060;SDS011;11194;48.092;-1.382;2023-03-01T10:20:53;23.15;;;14.77;;
22060;SDS011;11194;48.092;-1.382;2023-03-01T10:23:20;26.55;;;14.68;;
22060;SDS011;11194;48.092;-1.382;2023-03-01T10:30:41;25.08;;;13.63;;
22060;SDS011;11194;48.092;-1.382;2023-03-01T10:35:41;25.15;;;13.38;;
22060;SDS011;11194;48.092;-1.382;2023-03-01T10:38:13;22.98;;;12.85;;
22060;SDS011;11194;48.092;-1.382;2023-03-01T10:43:46;22.42;;;12.77;;
22060;SDS011;11194;48.092;-1.382;2023-03-01T10:49:15;22.05;;;12.50;;
22060;SDS011;11194;48.092;-1.382;2023-03-01T10:51:42;20.00;;;10.70;;
22060;SDS011;11194;48.092;-1.382;2023-03-01T10:54:42;21.48;;;12.68;;
22060;SDS011;11194;48.092;-1.382;2023-03-01T10:57:01;21.77;;;12.55;;
22060;SDS011;11194;48.092;-1.382;2023-03-01T10:59:37;21.50;;;13.00;;
22060;SDS011;11194;48.092;-1.382;2023-03-01T11:02:17;23.92;;;14.02;;
22060;SDS011;11194;48.092;-1.382;2023-03-01T11:04:57;23.27;;;14.43;;
22060;SDS011;11194;48.092;-1.382;2023-03-01T11:07:24;24.08;;;13.30;;
22060;SDS011;11194;48.092;-1.382;2023-03-01T11:09:50;22.73;;;13.48;;
22060;SDS011;11194;48.092;-1.382;2023-03-01T11:12:16;22.83;;;12.23;;
22060;SDS011;11194;48.092;-1.382;2023-03-01T11:14:47;23.45;;;13.90;;
22060;SDS011;11194;48.092;-1.382;2023-03-01T11:19:39;22.08;;;13.82;;
22060;SDS011;11194;48.092;-1.382;2023-03-01T11:22:27;24.30;;;14.43;;
22060;SDS011;11194;48.092;-1.382;2023-03-01T11:24:53;25.88;;;12.95;;
22060;SDS011;11194;48.092;-1.382;2023-03-01T11:27:24;18.40;;;11.05;;
22060;SDS011;11194;48.092;-1.382;2023-03-01T11:32:20;19.95;;;12.75;;
22060;SDS011;11194;48.092;-1.382;2023-03-01T11:40:24;26.63;;;14.55;;
22060;SDS011;11194;48.092;-1.382;2023-03-01T11:45:23;20.50;;;13.23;;
22060;SDS011;11194;48.092;-1.382;2023-03-01T11:48:33;18.92;;;11.65;;
22060;SDS011;11194;48.092;-1.382;2023-03-01T11:50:44;21.13;;;12.07;;
22060;SDS011;11194;48.092;-1.382;2023-03-01T12:01:19;23.85;;;13.93;;
22060;SDS011;11194;48.092;-1.382;2023-03-01T12:11:54;21.55;;;12.82;;
22060;SDS011;11194;48.092;-1.382;2023-03-01T12:17:16;21.13;;;13.77;;
22060;SDS011;11194;48.092;-1.382;2023-03-01T12:25:13;21.05;;;12.68;;
22060;SDS011;11194;48.092;-1.382;2023-03-01T12:35:31;21.60;;;13.00;;
22060;SDS011;11194;48.092;-1.382;2023-03-01T12:48:15;23.10;;;14.32;;
22060;SDS011;11194;48.092;-1.382;2023-03-01T12:50:46;23.23;;;14.27;;
22060;SDS011;11194;48.092;-1.382;2023-03-01T12:53:25;23.77;;;14.73;;
22060;SDS011;11194;48.092;-1.382;2023-03-01T12:55:53;21.15;;;13.25;;
22060;SDS011;11194;48.092;-1.382;2023-03-01T12:58:23;21.73;;;14.77;;
22060;SDS011;11194;48.092;-1.382;2023-03-01T13:01:13;24.95;;;15.30;;
22060;SDS011;11194;48.092;-1.382;2023-03-01T13:11:16;23.35;;;14.95;;
22060;SDS011;11194;48.092;-1.382;2023-03-01T13:13:43;22.85;;;13.77;;
22060;SDS011;11194;48.092;-1.382;2023-03-01T13:21:34;20.83;;;12.98;;
22060;SDS011;11194;48.092;-1.382;2023-03-01T13:24:00;20.55;;;13.60;;
22060;SDS011;11194;48.092;-1.382;2023-03-01T13:26:26;19.45;;;13.13;;
22060;SDS011;11194;48.092;-1.382;2023-03-01T13:28:56;20.80;;;13.90;;
22060;SDS011;11194;48.092;-1.382;2023-03-01T13:39:01;19.92;;;13.07;;
22060;SDS011;11194;48.092;-1.382;2023-03-01T13:49:27;17.48;;;12.20;;
22060;SDS011;11194;48.092;-1.382;2023-03-01T13:51:54;18.00;;;12.02;;
22060;SDS011;11194;48.092;-1.382;2023-03-01T13:54:29;19.13;;;12.23;;
22060;SDS011;11194;48.092;-1.382;2023-03-01T13:56:55;15.88;;;11.15;;
22060;SDS011;11194;48.092;-1.382;2023-03-01T13:59:23;18.83;;;12.15;;
22060;SDS011;11194;48.092;-1.382;2023-03-01T14:01:58;17.58;;;12.02;;
22060;SDS011;11194;48.092;-1.382;2023-03-01T14:04:29;18.63;;;13.02;;
22060;SDS011;11194;48.092;-1.382;2023-03-01T14:07:12;16.42;;;12.45;;
22060;SDS011;11194;48.092;-1.382;2023-03-01T14:09:40;17.50;;;11.88;;
22060;SDS011;11194;48.092;-1.382;2023-03-01T14:12:11;20.77;;;11.98;;
22060;SDS011;11194;48.092;-1.382;2023-03-01T14:14:48;19.00;;;12.23;;
22060;SDS011;11194;48.092;-1.382;2023-03-01T14:19:45;19.45;;;13.13;;
22060;SDS011;11194;48.092;-1.382;2023-03-01T14:22:14;19.10;;;11.70;;
22060;SDS011;11194;48.092;-1.382;2023-03-01T14:24:49;17.17;;;11.88;;
22060;SDS011;11194;48.092;-1.382;2023-03-01T14:27:16;21.30;;;13.52;;
22060;SDS011;11194;48.092;-1.382;2023-03-01T14:29:43;14.70;;;10.23;;
22060;SDS011;11194;48.092;-1.382;2023-03-01T14:32:17;14.63;;;10.35;;
22060;SDS011;11194;48.092;-1.382;2023-03-01T14:34:45;18.38;;;9.63;;
22060;SDS011;11194;48.092;-1.382;2023-03-01T14:37:16;14.40;;;9.55;;
22060;SDS011;11194;48.092;-1.382;2023-03-01T14:39:44;12.90;;;8.60;;
22060;SDS011;11194;48.092;-1.382;2023-03-01T14:42:10;18.63;;;10.38;;
22060;SDS011;11194;48.092;-1.382;2023-03-01T14:44:37;15.63;;;9.73;;
22060;SDS011;11194;48.092;-1.382;2023-03-01T14:47:03;14.63;;;9.73;;
22060;SDS011;11194;48.092;-1.382;2023-03-01T14:49:30;13.63;;;8.98;;
22060;SDS011;11194;48.092;-1.382;2023-03-01T14:51:58;15.50;;;8.93;;
22060;SDS011;11194;48.092;-1.382;2023-03-01T14:56:52;15.23;;;8.80;;
22060;SDS011;11194;48.092;-1.382;2023-03-01T14:59:22;15.82;;;9.70;;
22060;SDS011;11194;48.092;-1.382;2023-03-01T15:01:49;14.07;;;8.93;;
22060;SDS011;11194;48.092;-1.382;2023-03-01T15:04:16;14.18;;;8.63;;
22060;SDS011;11194;48.092;-1.382;2023-03-01T15:06:43;13.73;;;9.30;;
22060;SDS011;11194;48.092;-1.382;2023-03-01T15:09:13;14.40;;;9.52;;
22060;SDS011;11194;48.092;-1.382;2023-03-01T15:11:43;12.93;;;8.60;;
22060;SDS011;11194;48.092;-1.382;2023-03-01T15:14:36;12.90;;;8.68;;
22060;SDS011;11194;48.092;-1.382;2023-03-01T15:17:05;12.30;;;8.00;;
22060;SDS011;11194;48.092;-1.382;2023-03-01T15:19:31;13.48;;;8.90;;
22060;SDS011;11194;48.092;-1.382;2023-03-01T15:21:57;12.85;;;9.25;;
22060;SDS011;11194;48.092;-1.382;2023-03-01T15:24:24;14.73;;;9.40;;
22060;SDS011;11194;48.092;-1.382;2023-03-01T15:26:59;15.10;;;9.18;;
22060;SDS011;11194;48.092;-1.382;2023-03-01T15:29:32;15.13;;;9.35;;
22060;SDS011;11194;48.092;-1.382;2023-03-01T15:34:26;18.67;;;10.10;;
22060;SDS011;11194;48.092;-1.382;2023-03-01T15:36:53;16.10;;;9.55;;
22060;SDS011;11194;48.092;-1.382;2023-03-01T15:40:02;17.05;;;10.68;;
22060;SDS011;11194;48.092;-1.382;2023-03-01T15:45:06;16.92;;;9.73;;
22060;SDS011;11194;48.092;-1.382;2023-03-01T15:47:33;22.25;;;11.70;;
22060;SDS011;11194;48.092;-1.382;2023-03-01T15:49:59;18.80;;;11.68;;
22060;SDS011;11194;48.092;-1.382;2023-03-01T15:52:29;16.60;;;10.73;;
22060;SDS011;11194;48.092;-1.382;2023-03-01T15:55:00;18.88;;;11.10;;
22060;SDS011;11194;48.092;-1.382;2023-03-01T15:57:27;18.50;;;11.55;;
22060;SDS011;11194;48.092;-1.382;2023-03-01T15:59:53;21.40;;;12.73;;
22060;SDS011;11194;48.092;-1.382;2023-03-01T16:02:19;21.33;;;12.25;;
22060;SDS011;11194;48.092;-1.382;2023-03-01T16:04:46;22.25;;;12.32;;
22060;SDS011;11194;48.092;-1.382;2023-03-01T16:07:13;20.02;;;12.30;;
22060;SDS011;11194;48.092;-1.382;2023-03-01T16:09:39;22.88;;;12.98;;
22060;SDS011;11194;48.092;-1.382;2023-03-01T16:12:08;21.25;;;13.88;;
22060;SDS011;11194;48.092;-1.382;2023-03-01T16:14:35;21.10;;;12.93;;
22060;SDS011;11194;48.092;-1.382;2023-03-01T16:17:01;18.73;;;11.95;;
22060;SDS011;11194;48.092;-1.382;2023-03-01T16:19:27;20.27;;;11.95;;
22060;SDS011;11194;48.092;-1.382;2023-03-01T16:21:53;20.58;;;11.88;;
22060;SDS011;11194;48.092;-1.382;2023-03-01T16:24:20;20.77;;;12.95;;
22060;SDS011;11194;48.092;-1.382;2023-03-01T16:26:46;21.48;;;12.93;;
22060;SDS011;11194;48.092;-1.382;2023-03-01T16:29:12;21.63;;;12.80;;
22060;SDS011;11194;48.092;-1.382;2023-03-01T16:31:38;24.23;;;13.45;;
22060;SDS011;11194;48.092;-1.382;2023-03-01T16:34:04;21.10;;;12.35;;
22060;SDS011;11194;48.092;-1.382;2023-03-01T16:36:30;19.88;;;13.35;;
22060;SDS011;11194;48.092;-1.382;2023-03-01T16:38:59;21.55;;;12.90;;
22060;SDS011;11194;48.092;-1.382;2023-03-01T16:41:26;21.55;;;12.63;;
22060;SDS011;11194;48.092;-1.382;2023-03-01T16:43:52;21.63;;;12.82;;
22060;SDS011;11194;48.092;-1.382;2023-03-01T16:46:22;22.00;;;13.13;;
22060;SDS011;11194;48.092;-1.382;2023-03-01T16:48:49;19.27;;;11.85;;
22060;SDS011;11194;48.092;-1.382;2023-03-01T16:51:15;21.85;;;13.80;;
22060;SDS011;11194;48.092;-1.382;2023-03-01T16:53:41;22.45;;;13.23;;
22060;SDS011;11194;48.092;-1.382;2023-03-01T16:56:08;24.95;;;13.90;;
22060;SDS011;11194;48.092;-1.382;2023-03-01T16:58:35;22.30;;;13.45;;
22060;SDS011;11194;48.092;-1.382;2023-03-01T17:01:08;21.55;;;12.63;;
22060;SDS011;11194;48.092;-1.382;2023-03-01T17:03:35;18.23;;;11.15;;
22060;SDS011;11194;48.092;-1.382;2023-03-01T17:06:06;20.70;;;10.95;;
22060;SDS011;11194;48.092;-1.382;2023-03-01T17:08:32;15.63;;;10.43;;
22060;SDS011;11194;48.092;-1.382;2023-03-01T17:11:05;19.00;;;11.27;;
22060;SDS011;11194;48.092;-1.382;2023-03-01T17:13:32;16.48;;;11.50;;
22060;SDS011;11194;48.092;-1.382;2023-03-01T17:16:00;16.98;;;11.43;;
22060;SDS011;11194;48.092;-1.382;2023-03-01T17:18:26;17.65;;;9.98;;
22060;SDS011;11194;48.092;-1.382;2023-03-01T17:20:52;16.75;;;11.00;;
22060;SDS011;11194;48.092;-1.382;2023-03-01T17:23:18;16.02;;;10.23;;
22060;SDS011;11194;48.092;-1.382;2023-03-01T17:25:44;16.27;;;10.73;;
22060;SDS011;11194;48.092;-1.382;2023-03-01T17:28:11;20.35;;;11.80;;
22060;SDS011;11194;48.092;-1.382;2023-03-01T17:30:40;16.10;;;10.88;;
22060;SDS011;11194;48.092;-1.382;2023-03-01T17:33:06;18.08;;;11.63;;
22060;SDS011;11194;48.092;-1.382;2023-03-01T17:35:32;18.85;;;11.55;;
22060;SDS011;11194;48.092;-1.382;2023-03-01T17:38:01;20.25;;;11.52;;
22060;SDS011;11194;48.092;-1.382;2023-03-01T17:40:27;20.25;;;11.82;;
22060;SDS011;11194;48.092;-1.382;2023-03-01T17:42:53;16.85;;;11.52;;
22060;SDS011;11194;48.092;-1.382;2023-03-01T17:45:19;17.73;;;11.05;;
22060;SDS011;11194;48.092;-1.382;2023-03-01T17:47:45;20.73;;;13.00;;
22060;SDS011;11194;48.092;-1.382;2023-03-01T17:50:11;19.85;;;12.25;;
22060;SDS011;11194;48.092;-1.382;2023-03-01T17:52:37;22.10;;;13.20;;
22060;SDS011;11194;48.092;-1.382;2023-03-01T17:55:05;16.80;;;10.73;;
22060;SDS011;11194;48.092;-1.382;2023-03-01T17:57:31;16.13;;;10.23;;
22060;SDS011;11194;48.092;-1.382;2023-03-01T17:59:57;18.52;;;9.75;;
22060;SDS011;11194;48.092;-1.382;2023-03-01T18:02:23;19.05;;;9.45;;
22060;SDS011;11194;48.092;-1.382;2023-03-01T18:04:50;17.70;;;9.88;;
22060;SDS011;11194;48.092;-1.382;2023-03-01T18:07:17;16.90;;;8.75;;
22060;SDS011;11194;48.092;-1.382;2023-03-01T18:09:43;16.38;;;8.93;;
22060;SDS011;11194;48.092;-1.382;2023-03-01T18:12:10;15.63;;;9.98;;
22060;SDS011;11194;48.092;-1.382;2023-03-01T18:14:36;17.25;;;10.18;;
22060;SDS011;11194;48.092;-1.382;2023-03-01T18:17:02;17.92;;;10.30;;
22060;SDS011;11194;48.092;-1.382;2023-03-01T18:19:30;20.80;;;12.38;;
22060;SDS011;11194;48.092;-1.382;2023-03-01T18:21:56;19.88;;;11.88;;
22060;SDS011;11194;48.092;-1.382;2023-03-01T18:24:23;18.65;;;10.50;;
22060;SDS011;11194;48.092;-1.382;2023-03-01T18:26:49;20.45;;;11.80;;
22060;SDS011;11194;48.092;-1.382;2023-03-01T18:29:15;22.58;;;12.50;;
22060;SDS011;11194;48.092;-1.382;2023-03-01T18:31:41;20.23;;;11.45;;
22060;SDS011;11194;48.092;-1.382;2023-03-01T18:34:08;22.48;;;12.90;;
22060;SDS011;11194;48.092;-1.382;2023-03-01T18:36:35;18.23;;;11.27;;
22060;SDS011;11194;48.092;-1.382;2023-03-01T18:39:02;16.05;;;10.32;;
22060;SDS011;11194;48.092;-1.382;2023-03-01T18:41:29;18.85;;;10.43;;
22060;SDS011;11194;48.092;-1.382;2023-03-01T18:43:56;17.10;;;10.75;;
22060;SDS011;11194;48.092;-1.382;2023-03-01T18:46:22;18.35;;;11.23;;
22060;SDS011;11194;48.092;-1.382;2023-03-01T18:48:50;20.20;;;11.02;;
22060;SDS011;11194;48.092;-1.382;2023-03-01T18:51:17;20.38;;;10.95;;